sensor_id;sensor_type;location;lat;lon;timestamp;temperature;humidity
22321;DHT22;11328;53.928;18.522;2023-04-25T00:00:18;13.00;99.90
22321;DHT22;11328;53.928;18.522;2023-04-25T00:02:46;13.00;99.90
22321;DHT22;11328;53.928;18.522;2023-04-25T00:05:13;13.00;99.90
22321;DHT22;11328;53.928;18.522;2023-04-25T00:07:41;13.00;99.90
22321;DHT22;11328;53.928;18.522;2023-04-25T00:10:10;12.90;99.90
22321;DHT22;11328;53.928;18.522;2023-04-25T00:12:40;12.90;99.90
22321;DHT22;11328;53.928;18.522;2023-04-25T00:15:08;12.90;99.90
22321;DHT22;11328;53.928;18.522;2023-04-25T00:17:36;13.00;99.90
22321;DHT22;11328;53.928;18.522;2023-04-25T00:20:05;13.00;99.90
22321;DHT22;11328;53.928;18.522;2023-04-25T00:22:35;13.10;99.90
22321;DHT22;11328;53.928;18.522;2023-04-25T00:25:05;13.00;99.90
22321;DHT22;11328;53.928;18.522;2023-04-25T00:27:33;12.90;99.90
22321;DHT22;11328;53.928;18.522;2023-04-25T00:30:00;13.00;99.90
22321;DHT22;11328;53.928;18.522;2023-04-25T00:32:27;13.00;99.90
22321;DHT22;11328;53.928;18.522;2023-04-25T00:34:54;13.00;99.90
22321;DHT22;11328;53.928;18.522;2023-04-25T00:37:22;13.00;99.90
22321;DHT22;11328;53.928;18.522;2023-04-25T00:39:49;13.10;99.90
22321;DHT22;11328;53.928;18.522;2023-04-25T00:42:17;13.20;99.90
22321;DHT22;11328;53.928;18.522;2023-04-25T00:44:45;13.10;99.90
22321;DHT22;11328;53.928;18.522;2023-04-25T00:47:13;13.00;99.90
22321;DHT22;11328;53.928;18.522;2023-04-25T00:49:39;12.90;99.90
22321;DHT22;11328;53.928;18.522;2023-04-25T00:52:06;12.80;99.90
22321;DHT22;11328;53.928;18.522;2023-04-25T00:54:33;12.90;99.90
22321;DHT22;11328;53.928;18.522;2023-04-25T00:57:00;12.80;99.90
22321;DHT22;11328;53.928;18.522;2023-04-25T00:59:28;12.80;99.90
22321;DHT22;11328;53.928;18.522;2023-04-25T01:01:56;12.80;99.90
22321;DHT22;11328;53.928;18.522;2023-04-25T01:04:24;12.80;99.90
22321;DHT22;11328;53.928;18.522;2023-04-25T01:06:54;12.90;99.90
22321;DHT22;11328;53.928;18.522;2023-04-25T01:09:22;12.80;99.90
22321;DHT22;11328;53.928;18.522;2023-04-25T01:11:50;12.80;99.90
22321;DHT22;11328;53.928;18.522;2023-04-25T01:14:17;12.70;99.90
22321;DHT22;11328;53.928;18.522;2023-04-25T01:16:44;12.80;99.90
22321;DHT22;11328;53.928;18.522;2023-04-25T01:19:11;12.70;99.90
22321;DHT22;11328;53.928;18.522;2023-04-25T01:21:41;12.70;99.90
22321;DHT22;11328;53.928;18.522;2023-04-25T01:24:08;12.70;99.90
22321;DHT22;11328;53.928;18.522;2023-04-25T01:26:36;12.70;99.90
22321;DHT22;11328;53.928;18.522;2023-04-25T01:29:04;12.70;99.90
22321;DHT22;11328;53.928;18.522;2023-04-25T01:31:32;12.60;99.90
22321;DHT22;11328;53.928;18.522;2023-04-25T01:34:01;12.50;99.90
22321;DHT22;11328;53.928;18.522;2023-04-25T01:36:28;12.50;99.90
22321;DHT22;11328;53.928;18.522;2023-04-25T01:38:55;12.50;99.90
22321;DHT22;11328;53.928;18.522;2023-04-25T01:41:23;12.50;99.90
22321;DHT22;11328;53.928;18.522;2023-04-25T01:43:50;12.50;99.90
22321;DHT22;11328;53.928;18.522;2023-04-25T01:46:17;12.60;99.90
22321;DHT22;11328;53.928;18.522;2023-04-25T01:48:45;12.50;99.90
22321;DHT22;11328;53.928;18.522;2023-04-25T01:51:12;12.40;99.90
22321;DHT22;11328;53.928;18.522;2023-04-25T01:53:39;12.50;99.90
22321;DHT22;11328;53.928;18.522;2023-04-25T01:56:08;12.50;99.90
22321;DHT22;11328;53.928;18.522;2023-04-25T01:58:36;12.50;99.90
22321;DHT22;11328;53.928;18.522;2023-04-25T02:01:03;12.50;99.90
22321;DHT22;11328;53.928;18.522;2023-04-25T02:03:31;12.50;99.90
22321;DHT22;11328;53.928;18.522;2023-04-25T02:05:59;12.50;99.90
22321;DHT22;11328;53.928;18.522;2023-04-25T02:08:26;12.50;99.90
22321;DHT22;11328;53.928;18.522;2023-04-25T02:10:53;12.50;99.90
22321;DHT22;11328;53.928;18.522;2023-04-25T02:13:20;12.40;99.90
22321;DHT22;11328;53.928;18.522;2023-04-25T02:15:47;12.40;99.90
22321;DHT22;11328;53.928;18.522;2023-04-25T02:18:14;12.50;99.90
22321;DHT22;11328;53.928;18.522;2023-04-25T02:20:43;12.50;99.90
22321;DHT22;11328;53.928;18.522;2023-04-25T02:23:11;12.50;99.90
22321;DHT22;11328;53.928;18.522;2023-04-25T02:25:38;12.40;99.90
22321;DHT22;11328;53.928;18.522;2023-04-25T02:28:04;12.40;99.90
22321;DHT22;11328;53.928;18.522;2023-04-25T02:30:31;12.40;99.90
22321;DHT22;11328;53.928;18.522;2023-04-25T02:32:59;12.40;99.90
22321;DHT22;11328;53.928;18.522;2023-04-25T02:35:26;12.30;99.90
22321;DHT22;11328;53.928;18.522;2023-04-25T02:37:53;12.20;99.90
22321;DHT22;11328;53.928;18.522;2023-04-25T02:40:20;12.30;99.90
22321;DHT22;11328;53.928;18.522;2023-04-25T02:42:47;12.30;99.90
22321;DHT22;11328;53.928;18.522;2023-04-25T02:45:14;12.30;99.90
22321;DHT22;11328;53.928;18.522;2023-04-25T02:47:43;12.20;99.90
22321;DHT22;11328;53.928;18.522;2023-04-25T02:50:11;12.10;99.90
22321;DHT22;11328;53.928;18.522;2023-04-25T02:52:38;12.00;99.90
22321;DHT22;11328;53.928;18.522;2023-04-25T02:55:05;12.00;99.90
22321;DHT22;11328;53.928;18.522;2023-04-25T02:57:32;11.70;99.90
22321;DHT22;11328;53.928;18.522;2023-04-25T03:00:00;11.60;99.90
22321;DHT22;11328;53.928;18.522;2023-04-25T03:02:28;11.70;99.90
22321;DHT22;11328;53.928;18.522;2023-04-25T03:04:55;11.70;99.90
22321;DHT22;11328;53.928;18.522;2023-04-25T03:07:22;11.60;99.90
22321;DHT22;11328;53.928;18.522;2023-04-25T03:09:49;11.50;99.90
22321;DHT22;11328;53.928;18.522;2023-04-25T03:12:16;11.30;99.90
22321;DHT22;11328;53.928;18.522;2023-04-25T03:14:43;11.30;99.90
22321;DHT22;11328;53.928;18.522;2023-04-25T03:17:10;11.10;99.90
22321;DHT22;11328;53.928;18.522;2023-04-25T03:19:37;11.10;99.90
22321;DHT22;11328;53.928;18.522;2023-04-25T03:22:04;11.10;99.90
22321;DHT22;11328;53.928;18.522;2023-04-25T03:24:30;11.00;99.90
22321;DHT22;11328;53.928;18.522;2023-04-25T03:26:57;11.00;99.90
22321;DHT22;11328;53.928;18.522;2023-04-25T03:29:27;11.00;99.90
22321;DHT22;11328;53.928;18.522;2023-04-25T03:31:57;11.00;99.90
22321;DHT22;11328;53.928;18.522;2023-04-25T03:34:24;10.90;99.90
22321;DHT22;11328;53.928;18.522;2023-04-25T03:36:52;10.70;99.90
22321;DHT22;11328;53.928;18.522;2023-04-25T03:39:19;10.80;99.90
22321;DHT22;11328;53.928;18.522;2023-04-25T03:41:46;10.80;99.90
22321;DHT22;11328;53.928;18.522;2023-04-25T03:44:14;10.70;99.90
22321;DHT22;11328;53.928;18.522;2023-04-25T03:46:40;10.80;99.90
22321;DHT22;11328;53.928;18.522;2023-04-25T03:49:07;10.90;99.90
22321;DHT22;11328;53.928;18.522;2023-04-25T03:51:34;10.80;99.90
22321;DHT22;11328;53.928;18.522;2023-04-25T03:54:01;10.80;99.90
22321;DHT22;11328;53.928;18.522;2023-04-25T03:56:29;10.80;99.90
22321;DHT22;11328;53.928;18.522;2023-04-25T03:58:56;10.90;99.90
22321;DHT22;11328;53.928;18.522;2023-04-25T04:01:23;10.80;99.90
22321;DHT22;11328;53.928;18.522;2023-04-25T04:03:50;10.90;99.90
22321;DHT22;11328;53.928;18.522;2023-04-25T04:06:17;11.00;99.90
22321;DHT22;11328;53.928;18.522;2023-04-25T04:08:44;11.00;99.90
22321;DHT22;11328;53.928;18.522;2023-04-25T04:11:11;11.00;99.90
22321;DHT22;11328;53.928;18.522;2023-04-25T04:13:38;11.00;99.90
22321;DHT22;11328;53.928;18.522;2023-04-25T04:16:05;10.90;99.90
22321;DHT22;11328;53.928;18.522;2023-04-25T04:18:32;10.90;99.90
22321;DHT22;11328;53.928;18.522;2023-04-25T04:20:59;10.90;99.90
22321;DHT22;11328;53.928;18.522;2023-04-25T04:23:26;10.80;99.90
22321;DHT22;11328;53.928;18.522;2023-04-25T04:25:55;10.80;99.90
22321;DHT22;11328;53.928;18.522;2023-04-25T04:28:22;10.90;99.90
22321;DHT22;11328;53.928;18.522;2023-04-25T04:30:52;11.00;99.90
22321;DHT22;11328;53.928;18.522;2023-04-25T04:33:19;11.00;99.90
22321;DHT22;11328;53.928;18.522;2023-04-25T04:35:46;10.90;99.90
22321;DHT22;11328;53.928;18.522;2023-04-25T04:38:14;10.90;99.90
22321;DHT22;11328;53.928;18.522;2023-04-25T04:40:45;10.90;99.90
22321;DHT22;11328;53.928;18.522;2023-04-25T04:43:12;10.90;99.90
22321;DHT22;11328;53.928;18.522;2023-04-25T04:45:40;10.70;99.90
22321;DHT22;11328;53.928;18.522;2023-04-25T04:48:07;10.70;99.90
22321;DHT22;11328;53.928;18.522;2023-04-25T04:50:35;10.60;99.90
22321;DHT22;11328;53.928;18.522;2023-04-25T04:53:03;10.60;99.90
22321;DHT22;11328;53.928;18.522;2023-04-25T04:55:31;10.50;99.90
22321;DHT22;11328;53.928;18.522;2023-04-25T04:57:58;10.50;99.90
22321;DHT22;11328;53.928;18.522;2023-04-25T05:00:25;10.60;99.90
22321;DHT22;11328;53.928;18.522;2023-04-25T05:02:55;10.60;99.90
22321;DHT22;11328;53.928;18.522;2023-04-25T05:05:25;10.50;99.90
22321;DHT22;11328;53.928;18.522;2023-04-25T05:07:52;10.50;99.90
22321;DHT22;11328;53.928;18.522;2023-04-25T05:10:19;10.50;99.90
22321;DHT22;11328;53.928;18.522;2023-04-25T05:12:46;10.50;99.90
22321;DHT22;11328;53.928;18.522;2023-04-25T05:15:13;10.50;99.90
22321;DHT22;11328;53.928;18.522;2023-04-25T05:17:41;10.40;99.90
22321;DHT22;11328;53.928;18.522;2023-04-25T05:20:08;10.40;99.90
22321;DHT22;11328;53.928;18.522;2023-04-25T05:22:36;10.40;99.90
22321;DHT22;11328;53.928;18.522;2023-04-25T05:25:03;10.40;99.90
22321;DHT22;11328;53.928;18.522;2023-04-25T05:27:30;10.30;99.90
22321;DHT22;11328;53.928;18.522;2023-04-25T05:29:57;10.30;99.90
22321;DHT22;11328;53.928;18.522;2023-04-25T05:32:24;10.30;99.90
22321;DHT22;11328;53.928;18.522;2023-04-25T05:34:52;10.40;99.90
22321;DHT22;11328;53.928;18.522;2023-04-25T05:37:19;10.40;99.90
22321;DHT22;11328;53.928;18.522;2023-04-25T05:39:46;10.30;99.90
22321;DHT22;11328;53.928;18.522;2023-04-25T05:42:16;10.30;99.90
22321;DHT22;11328;53.928;18.522;2023-04-25T05:44:43;10.20;99.90
22321;DHT22;11328;53.928;18.522;2023-04-25T05:47:09;10.30;99.90
22321;DHT22;11328;53.928;18.522;2023-04-25T05:49:36;10.30;99.90
22321;DHT22;11328;53.928;18.522;2023-04-25T05:52:03;10.30;99.90
22321;DHT22;11328;53.928;18.522;2023-04-25T05:54:33;10.20;99.90
22321;DHT22;11328;53.928;18.522;2023-04-25T05:57:00;10.10;99.90
22321;DHT22;11328;53.928;18.522;2023-04-25T05:59:29;10.10;99.90
22321;DHT22;11328;53.928;18.522;2023-04-25T06:01:56;10.10;99.90
22321;DHT22;11328;53.928;18.522;2023-04-25T06:04:22;10.10;99.90
22321;DHT22;11328;53.928;18.522;2023-04-25T06:06:50;10.10;99.90
22321;DHT22;11328;53.928;18.522;2023-04-25T06:09:17;10.10;99.90
22321;DHT22;11328;53.928;18.522;2023-04-25T06:11:44;9.90;99.90
22321;DHT22;11328;53.928;18.522;2023-04-25T06:14:11;9.90;99.90
22321;DHT22;11328;53.928;18.522;2023-04-25T06:16:38;10.00;99.90
22321;DHT22;11328;53.928;18.522;2023-04-25T06:19:05;10.00;99.90
22321;DHT22;11328;53.928;18.522;2023-04-25T06:21:32;10.00;99.90
22321;DHT22;11328;53.928;18.522;2023-04-25T06:23:59;10.00;99.90
22321;DHT22;11328;53.928;18.522;2023-04-25T06:26:25;10.10;99.90
22321;DHT22;11328;53.928;18.522;2023-04-25T06:28:52;10.10;99.90
22321;DHT22;11328;53.928;18.522;2023-04-25T06:31:19;10.10;99.90
22321;DHT22;11328;53.928;18.522;2023-04-25T06:33:46;10.30;99.90
22321;DHT22;11328;53.928;18.522;2023-04-25T06:36:15;10.20;99.90
22321;DHT22;11328;53.928;18.522;2023-04-25T06:38:42;10.40;99.90
22321;DHT22;11328;53.928;18.522;2023-04-25T06:41:10;10.30;99.90
22321;DHT22;11328;53.928;18.522;2023-04-25T06:43:37;10.20;99.90
22321;DHT22;11328;53.928;18.522;2023-04-25T06:46:04;10.20;99.90
22321;DHT22;11328;53.928;18.522;2023-04-25T06:48:31;10.20;99.90
22321;DHT22;11328;53.928;18.522;2023-04-25T06:50:58;10.10;99.90
22321;DHT22;11328;53.928;18.522;2023-04-25T06:53:25;10.20;99.90
22321;DHT22;11328;53.928;18.522;2023-04-25T06:55:52;10.20;99.90
22321;DHT22;11328;53.928;18.522;2023-04-25T06:58:19;10.10;99.90
22321;DHT22;11328;53.928;18.522;2023-04-25T07:00:46;10.20;99.90
22321;DHT22;11328;53.928;18.522;2023-04-25T07:03:13;10.20;99.90
22321;DHT22;11328;53.928;18.522;2023-04-25T07:05:40;10.30;99.90
22321;DHT22;11328;53.928;18.522;2023-04-25T07:08:07;10.30;99.90
22321;DHT22;11328;53.928;18.522;2023-04-25T07:10:34;10.20;99.90
22321;DHT22;11328;53.928;18.522;2023-04-25T07:13:01;10.40;99.90
22321;DHT22;11328;53.928;18.522;2023-04-25T07:15:28;10.40;99.90
22321;DHT22;11328;53.928;18.522;2023-04-25T07:17:58;10.40;99.90
22321;DHT22;11328;53.928;18.522;2023-04-25T07:20:26;10.30;99.90
22321;DHT22;11328;53.928;18.522;2023-04-25T07:22:54;10.40;99.90
22321;DHT22;11328;53.928;18.522;2023-04-25T07:25:22;10.40;99.90
22321;DHT22;11328;53.928;18.522;2023-04-25T07:27:49;10.50;99.90
22321;DHT22;11328;53.928;18.522;2023-04-25T07:30:16;10.70;99.90
22321;DHT22;11328;53.928;18.522;2023-04-25T07:32:46;10.70;99.90
22321;DHT22;11328;53.928;18.522;2023-04-25T07:35:13;10.70;99.90
22321;DHT22;11328;53.928;18.522;2023-04-25T07:37:40;10.70;99.90
22321;DHT22;11328;53.928;18.522;2023-04-25T07:40:07;10.70;99.90
22321;DHT22;11328;53.928;18.522;2023-04-25T07:42:36;10.60;99.90
22321;DHT22;11328;53.928;18.522;2023-04-25T07:45:03;10.60;99.90
22321;DHT22;11328;53.928;18.522;2023-04-25T07:47:30;10.60;99.90
22321;DHT22;11328;53.928;18.522;2023-04-25T07:49:57;10.60;99.90
22321;DHT22;11328;53.928;18.522;2023-04-25T07:52:24;10.80;99.90
22321;DHT22;11328;53.928;18.522;2023-04-25T07:54:51;10.90;99.90
22321;DHT22;11328;53.928;18.522;2023-04-25T07:57:18;10.90;99.90
22321;DHT22;11328;53.928;18.522;2023-04-25T07:59:46;11.10;99.90
22321;DHT22;11328;53.928;18.522;2023-04-25T08:02:13;11.20;99.90
22321;DHT22;11328;53.928;18.522;2023-04-25T08:04:40;11.30;99.90
22321;DHT22;11328;53.928;18.522;2023-04-25T08:07:07;11.40;99.90
22321;DHT22;11328;53.928;18.522;2023-04-25T08:09:34;11.50;99.90
22321;DHT22;11328;53.928;18.522;2023-04-25T08:12:04;11.60;99.90
22321;DHT22;11328;53.928;18.522;2023-04-25T08:14:31;11.40;99.90
22321;DHT22;11328;53.928;18.522;2023-04-25T08:17:03;11.50;99.90
22321;DHT22;11328;53.928;18.522;2023-04-25T08:19:31;11.30;99.90
22321;DHT22;11328;53.928;18.522;2023-04-25T08:21:58;11.60;99.90
22321;DHT22;11328;53.928;18.522;2023-04-25T08:24:25;11.80;99.90
22321;DHT22;11328;53.928;18.522;2023-04-25T08:26:52;11.90;99.90
22321;DHT22;11328;53.928;18.522;2023-04-25T08:29:20;12.10;99.90
22321;DHT22;11328;53.928;18.522;2023-04-25T08:31:47;12.40;99.90
22321;DHT22;11328;53.928;18.522;2023-04-25T08:34:14;12.70;99.90
22321;DHT22;11328;53.928;18.522;2023-04-25T08:36:41;13.00;99.90
22321;DHT22;11328;53.928;18.522;2023-04-25T08:39:08;13.10;99.90
22321;DHT22;11328;53.928;18.522;2023-04-25T08:41:37;12.90;99.90
22321;DHT22;11328;53.928;18.522;2023-04-25T08:44:05;12.80;99.90
22321;DHT22;11328;53.928;18.522;2023-04-25T08:46:34;12.80;99.90
22321;DHT22;11328;53.928;18.522;2023-04-25T08:49:01;12.80;99.90
22321;DHT22;11328;53.928;18.522;2023-04-25T08:51:31;12.80;99.90
22321;DHT22;11328;53.928;18.522;2023-04-25T08:54:10;12.80;99.90
22321;DHT22;11328;53.928;18.522;2023-04-25T08:56:45;12.50;99.90
22321;DHT22;11328;53.928;18.522;2023-04-25T08:59:14;12.30;99.90
22321;DHT22;11328;53.928;18.522;2023-04-25T09:01:41;12.30;99.90
22321;DHT22;11328;53.928;18.522;2023-04-25T09:04:08;12.40;99.90
22321;DHT22;11328;53.928;18.522;2023-04-25T09:06:38;12.40;99.90
22321;DHT22;11328;53.928;18.522;2023-04-25T09:09:07;12.60;99.90
22321;DHT22;11328;53.928;18.522;2023-04-25T09:11:36;12.60;99.90
22321;DHT22;11328;53.928;18.522;2023-04-25T09:14:16;12.30;99.90
22321;DHT22;11328;53.928;18.522;2023-04-25T09:22:06;12.40;99.90
22321;DHT22;11328;53.928;18.522;2023-04-25T09:24:43;12.60;99.90
22321;DHT22;11328;53.928;18.522;2023-04-25T09:27:18;12.60;99.90
22321;DHT22;11328;53.928;18.522;2023-04-25T09:29:47;12.60;99.90
22321;DHT22;11328;53.928;18.522;2023-04-25T09:32:19;12.60;99.90
22321;DHT22;11328;53.928;18.522;2023-04-25T09:34:57;12.50;99.90
22321;DHT22;11328;53.928;18.522;2023-04-25T09:37:29;12.50;99.90
22321;DHT22;11328;53.928;18.522;2023-04-25T09:39:58;12.60;99.90
22321;DHT22;11328;53.928;18.522;2023-04-25T09:42:29;12.50;99.90
22321;DHT22;11328;53.928;18.522;2023-04-25T09:44:59;12.60;99.90
22321;DHT22;11328;53.928;18.522;2023-04-25T09:47:28;12.70;99.90
22321;DHT22;11328;53.928;18.522;2023-04-25T09:49:55;12.80;99.90
22321;DHT22;11328;53.928;18.522;2023-04-25T09:52:24;12.80;99.90
22321;DHT22;11328;53.928;18.522;2023-04-25T09:54:52;12.80;99.90
22321;DHT22;11328;53.928;18.522;2023-04-25T09:57:23;12.90;99.90
22321;DHT22;11328;53.928;18.522;2023-04-25T09:59:52;13.10;99.90
22321;DHT22;11328;53.928;18.522;2023-04-25T10:02:22;13.10;99.90
22321;DHT22;11328;53.928;18.522;2023-04-25T10:04:53;13.00;99.90
22321;DHT22;11328;53.928;18.522;2023-04-25T10:07:25;13.00;99.90
22321;DHT22;11328;53.928;18.522;2023-04-25T10:09:59;12.90;99.90
22321;DHT22;11328;53.928;18.522;2023-04-25T10:12:32;12.60;99.90
22321;DHT22;11328;53.928;18.522;2023-04-25T10:15:01;12.50;99.90
22321;DHT22;11328;53.928;18.522;2023-04-25T10:17:30;12.40;99.90
22321;DHT22;11328;53.928;18.522;2023-04-25T10:19:58;12.20;99.90
22321;DHT22;11328;53.928;18.522;2023-04-25T10:22:38;12.10;99.90
22321;DHT22;11328;53.928;18.522;2023-04-25T10:25:08;12.10;99.90
22321;DHT22;11328;53.928;18.522;2023-04-25T10:27:36;12.00;99.90
22321;DHT22;11328;53.928;18.522;2023-04-25T10:30:06;11.90;99.90
22321;DHT22;11328;53.928;18.522;2023-04-25T10:32:39;11.80;99.90
22321;DHT22;11328;53.928;18.522;2023-04-25T10:35:16;11.80;99.90
22321;DHT22;11328;53.928;18.522;2023-04-25T10:38:03;11.90;99.90
22321;DHT22;11328;53.928;18.522;2023-04-25T10:40:33;11.80;99.90
22321;DHT22;11328;53.928;18.522;2023-04-25T10:46:26;11.80;99.90
22321;DHT22;11328;53.928;18.522;2023-04-25T10:49:01;11.70;99.90
22321;DHT22;11328;53.928;18.522;2023-04-25T10:51:32;11.70;99.90
22321;DHT22;11328;53.928;18.522;2023-04-25T10:54:22;11.60;99.90
22321;DHT22;11328;53.928;18.522;2023-04-25T10:56:52;11.60;99.90
22321;DHT22;11328;53.928;18.522;2023-04-25T10:59:19;11.40;99.90
22321;DHT22;11328;53.928;18.522;2023-04-25T11:01:52;11.40;99.90
22321;DHT22;11328;53.928;18.522;2023-04-25T11:04:29;11.50;99.90
22321;DHT22;11328;53.928;18.522;2023-04-25T11:09:34;11.60;99.90
22321;DHT22;11328;53.928;18.522;2023-04-25T11:12:02;11.60;99.90
22321;DHT22;11328;53.928;18.522;2023-04-25T11:14:29;11.60;99.90
22321;DHT22;11328;53.928;18.522;2023-04-25T11:16:57;11.60;99.90
22321;DHT22;11328;53.928;18.522;2023-04-25T11:19:30;11.50;99.90
22321;DHT22;11328;53.928;18.522;2023-04-25T11:22:01;11.50;99.90
22321;DHT22;11328;53.928;18.522;2023-04-25T11:24:34;11.60;99.90
22321;DHT22;11328;53.928;18.522;2023-04-25T11:27:03;11.70;99.90
22321;DHT22;11328;53.928;18.522;2023-04-25T11:29:33;11.80;99.90
22321;DHT22;11328;53.928;18.522;2023-04-25T11:32:01;11.80;99.90
22321;DHT22;11328;53.928;18.522;2023-04-25T11:34:30;11.70;99.90
22321;DHT22;11328;53.928;18.522;2023-04-25T11:37:01;11.60;99.90
22321;DHT22;11328;53.928;18.522;2023-04-25T11:39:29;11.70;99.90
22321;DHT22;11328;53.928;18.522;2023-04-25T11:41:56;11.90;99.90
22321;DHT22;11328;53.928;18.522;2023-04-25T11:44:24;12.10;99.90
22321;DHT22;11328;53.928;18.522;2023-04-25T11:46:52;12.10;99.90
22321;DHT22;11328;53.928;18.522;2023-04-25T11:49:19;12.10;99.90
22321;DHT22;11328;53.928;18.522;2023-04-25T11:51:47;12.10;99.90
22321;DHT22;11328;53.928;18.522;2023-04-25T11:54:15;12.10;99.90
22321;DHT22;11328;53.928;18.522;2023-04-25T11:56:43;12.10;99.90
22321;DHT22;11328;53.928;18.522;2023-04-25T11:59:12;12.10;99.90
22321;DHT22;11328;53.928;18.522;2023-04-25T12:01:47;12.20;99.90
22321;DHT22;11328;53.928;18.522;2023-04-25T12:04:20;12.20;99.90
22321;DHT22;11328;53.928;18.522;2023-04-25T12:06:51;12.30;99.90
22321;DHT22;11328;53.928;18.522;2023-04-25T12:09:24;12.50;99.90
22321;DHT22;11328;53.928;18.522;2023-04-25T12:11:56;12.60;99.90
22321;DHT22;11328;53.928;18.522;2023-04-25T12:14:32;12.80;99.90
22321;DHT22;11328;53.928;18.522;2023-04-25T12:17:03;13.00;99.90
22321;DHT22;11328;53.928;18.522;2023-04-25T12:19:34;13.20;99.90
22321;DHT22;11328;53.928;18.522;2023-04-25T12:22:03;13.40;99.90
22321;DHT22;11328;53.928;18.522;2023-04-25T12:24:45;13.60;99.90
22321;DHT22;11328;53.928;18.522;2023-04-25T12:27:14;13.70;99.90
22321;DHT22;11328;53.928;18.522;2023-04-25T12:29:54;13.60;99.90
22321;DHT22;11328;53.928;18.522;2023-04-25T12:32:22;13.70;99.90
22321;DHT22;11328;53.928;18.522;2023-04-25T12:34:50;13.90;99.90
22321;DHT22;11328;53.928;18.522;2023-04-25T12:37:17;13.90;99.90
22321;DHT22;11328;53.928;18.522;2023-04-25T12:39:44;14.00;99.90
22321;DHT22;11328;53.928;18.522;2023-04-25T12:42:11;13.90;99.90
22321;DHT22;11328;53.928;18.522;2023-04-25T12:44:39;14.00;99.90
22321;DHT22;11328;53.928;18.522;2023-04-25T12:47:07;14.10;99.90
22321;DHT22;11328;53.928;18.522;2023-04-25T12:49:34;14.10;99.90
22321;DHT22;11328;53.928;18.522;2023-04-25T12:52:01;14.20;99.90
22321;DHT22;11328;53.928;18.522;2023-04-25T12:54:28;14.20;99.90
22321;DHT22;11328;53.928;18.522;2023-04-25T12:56:56;14.00;99.90
22321;DHT22;11328;53.928;18.522;2023-04-25T12:59:23;13.70;99.90
22321;DHT22;11328;53.928;18.522;2023-04-25T13:01:50;13.00;99.90
22321;DHT22;11328;53.928;18.522;2023-04-25T13:04:18;12.70;99.90
22321;DHT22;11328;53.928;18.522;2023-04-25T13:06:47;12.30;99.90
22321;DHT22;11328;53.928;18.522;2023-04-25T13:09:17;12.20;99.90
22321;DHT22;11328;53.928;18.522;2023-04-25T13:11:44;12.00;99.90
22321;DHT22;11328;53.928;18.522;2023-04-25T13:14:12;11.70;99.90
22321;DHT22;11328;53.928;18.522;2023-04-25T13:16:39;11.60;99.90
22321;DHT22;11328;53.928;18.522;2023-04-25T13:19:07;11.70;99.90
22321;DHT22;11328;53.928;18.522;2023-04-25T13:21:37;11.80;99.90
22321;DHT22;11328;53.928;18.522;2023-04-25T13:24:04;11.60;99.90
22321;DHT22;11328;53.928;18.522;2023-04-25T13:26:32;11.50;99.90
22321;DHT22;11328;53.928;18.522;2023-04-25T13:28:59;11.50;99.90
22321;DHT22;11328;53.928;18.522;2023-04-25T13:31:27;11.60;99.90
22321;DHT22;11328;53.928;18.522;2023-04-25T13:33:54;11.80;99.90
22321;DHT22;11328;53.928;18.522;2023-04-25T13:36:21;12.00;99.90
22321;DHT22;11328;53.928;18.522;2023-04-25T13:38:48;12.20;99.90
22321;DHT22;11328;53.928;18.522;2023-04-25T13:41:16;12.20;99.90
22321;DHT22;11328;53.928;18.522;2023-04-25T13:43:46;12.20;99.90
22321;DHT22;11328;53.928;18.522;2023-04-25T13:46:15;12.30;99.90
22321;DHT22;11328;53.928;18.522;2023-04-25T13:49:02;12.30;99.90
22321;DHT22;11328;53.928;18.522;2023-04-25T13:51:38;12.40;99.90
22321;DHT22;11328;53.928;18.522;2023-04-25T13:54:06;12.40;99.90
22321;DHT22;11328;53.928;18.522;2023-04-25T13:56:34;12.50;99.90
22321;DHT22;11328;53.928;18.522;2023-04-25T13:59:01;12.70;99.90
22321;DHT22;11328;53.928;18.522;2023-04-25T14:01:29;12.80;99.90
22321;DHT22;11328;53.928;18.522;2023-04-25T14:04:01;13.00;99.90
22321;DHT22;11328;53.928;18.522;2023-04-25T14:06:31;13.20;99.90
22321;DHT22;11328;53.928;18.522;2023-04-25T14:08:59;13.30;99.90
22321;DHT22;11328;53.928;18.522;2023-04-25T14:11:31;13.40;99.90
22321;DHT22;11328;53.928;18.522;2023-04-25T14:13:58;13.50;99.90
22321;DHT22;11328;53.928;18.522;2023-04-25T14:16:25;13.70;99.90
22321;DHT22;11328;53.928;18.522;2023-04-25T14:18:52;13.80;99.90
22321;DHT22;11328;53.928;18.522;2023-04-25T14:21:21;13.80;99.90
22321;DHT22;11328;53.928;18.522;2023-04-25T14:23:48;13.70;99.90
22321;DHT22;11328;53.928;18.522;2023-04-25T14:26:15;13.80;99.90
22321;DHT22;11328;53.928;18.522;2023-04-25T14:28:42;13.70;99.90
22321;DHT22;11328;53.928;18.522;2023-04-25T14:31:10;13.60;99.90
22321;DHT22;11328;53.928;18.522;2023-04-25T14:33:37;13.30;99.90
22321;DHT22;11328;53.928;18.522;2023-04-25T14:36:08;13.40;99.90
22321;DHT22;11328;53.928;18.522;2023-04-25T14:38:36;13.30;99.90
22321;DHT22;11328;53.928;18.522;2023-04-25T14:41:03;13.20;99.90
22321;DHT22;11328;53.928;18.522;2023-04-25T14:43:30;13.20;99.90
22321;DHT22;11328;53.928;18.522;2023-04-25T14:45:57;13.20;99.90
22321;DHT22;11328;53.928;18.522;2023-04-25T14:48:24;13.20;99.90
22321;DHT22;11328;53.928;18.522;2023-04-25T14:50:53;13.10;99.90
22321;DHT22;11328;53.928;18.522;2023-04-25T14:53:20;12.90;99.90
22321;DHT22;11328;53.928;18.522;2023-04-25T14:55:47;12.80;99.90
22321;DHT22;11328;53.928;18.522;2023-04-25T14:58:15;12.10;99.90
22321;DHT22;11328;53.928;18.522;2023-04-25T15:00:43;11.60;99.90
22321;DHT22;11328;53.928;18.522;2023-04-25T15:03:12;11.40;99.90
22321;DHT22;11328;53.928;18.522;2023-04-25T15:05:40;11.20;99.90
22321;DHT22;11328;53.928;18.522;2023-04-25T15:08:08;11.10;99.90
22321;DHT22;11328;53.928;18.522;2023-04-25T15:10:35;11.00;99.90
22321;DHT22;11328;53.928;18.522;2023-04-25T15:13:03;10.90;99.90
22321;DHT22;11328;53.928;18.522;2023-04-25T15:15:31;10.90;99.90
22321;DHT22;11328;53.928;18.522;2023-04-25T15:17:58;10.70;99.90
22321;DHT22;11328;53.928;18.522;2023-04-25T15:20:25;10.50;99.90
22321;DHT22;11328;53.928;18.522;2023-04-25T15:22:53;10.50;99.90
22321;DHT22;11328;53.928;18.522;2023-04-25T15:25:21;10.40;99.90
22321;DHT22;11328;53.928;18.522;2023-04-25T15:27:48;10.40;99.90
22321;DHT22;11328;53.928;18.522;2023-04-25T15:30:18;10.30;99.90
22321;DHT22;11328;53.928;18.522;2023-04-25T15:32:46;10.40;99.90